Time;durP1;ratioP1;P1;durP2;ratioP2;P2;SDS_P1;SDS_P2;PMS_P1;PMS_P2;Temp;Humidity;BMP_temperature;BMP_pressure;BME280_temperature;BME280_humidity;BME280_pressure;Samples;Min_cycle;Max_cycle;Signal;HPM_P1;HPM_P2
2024/01/14 00:00:06;;;;;;;24.60;13.87;;;;;;;-3.82;100.00;150401.28;4980183;28;20962;-84
2024/01/14 00:02:35;;;;;;;26.60;12.37;;;;;;;-3.85;100.00;150393.63;4957357;28;20458;-83
2024/01/14 00:05:01;;;;;;;28.13;13.57;;;;;;;-3.84;100.00;150396.16;4933212;29;20452;-84
2024/01/14 00:07:28;;;;;;;25.57;12.60;;;;;;;-3.83;100.00;150397.44;4957912;28;20460;-85
2024/01/14 00:09:55;;;;;;;22.53;13.63;;;;;;;-3.87;100.00;150388.50;4950451;28;20515;-84
2024/01/14 00:12:22;;;;;;;19.77;12.80;;;;;;;-3.88;100.00;150384.66;4951085;29;21030;-84
2024/01/14 00:14:50;;;;;;;27.30;12.10;;;;;;;-3.91;100.00;150378.25;4934150;29;20459;-84
2024/01/14 00:17:16;;;;;;;23.77;12.63;;;;;;;-3.90;100.00;150379.53;4966030;28;20446;-84
2024/01/14 00:19:43;;;;;;;25.87;12.67;;;;;;;-3.89;100.00;150383.34;4934680;29;20453;-84
2024/01/14 00:22:10;;;;;;;23.83;13.20;;;;;;;-3.91;100.00;150376.97;4949770;28;20443;-84
2024/01/14 00:24:37;;;;;;;21.60;12.43;;;;;;;-3.91;100.00;150378.25;4949220;29;20456;-84
2024/01/14 00:27:03;;;;;;;27.00;13.40;;;;;;;-3.91;100.00;150376.97;4963913;28;20525;-84
2024/01/14 00:29:30;;;;;;;21.37;12.53;;;;;;;-3.93;100.00;150373.16;4950448;28;20574;-84
2024/01/14 00:31:58;;;;;;;19.97;13.27;;;;;;;-3.95;100.00;150366.75;4967594;28;20458;-84
2024/01/14 00:34:25;;;;;;;21.70;10.90;;;;;;;-3.94;100.00;150370.56;4951782;29;20448;-84
2024/01/14 00:36:51;;;;;;;23.17;12.20;;;;;;;-3.94;100.00;150370.56;4949187;28;20477;-83
2024/01/14 00:39:19;;;;;;;19.07;10.47;;;;;;;-3.96;100.00;150365.47;4962090;28;20680;-84
2024/01/14 00:41:45;;;;;;;25.40;13.23;;;;;;;-3.94;100.00;150369.28;4958028;28;20988;-83
2024/01/14 00:44:12;;;;;;;24.10;12.93;;;;;;;-3.96;100.00;150365.47;4950614;28;20459;-84
2024/01/14 00:46:38;;;;;;;29.50;13.50;;;;;;;-3.92;100.00;150375.69;4950537;28;20467;-84
2024/01/14 00:49:06;;;;;;;21.20;12.83;;;;;;;-3.92;100.00;150375.69;4934913;29;20479;-84
2024/01/14 00:51:33;;;;;;;21.73;13.07;;;;;;;-3.92;100.00;150374.44;4951666;29;20450;-83
2024/01/14 00:53:59;;;;;;;21.30;12.70;;;;;;;-3.94;100.00;150370.56;4935633;29;20459;-83
2024/01/14 00:56:26;;;;;;;21.27;12.00;;;;;;;-3.95;100.00;150368.06;4950264;28;20463;-84
2024/01/14 00:58:52;;;;;;;20.17;11.50;;;;;;;-3.98;100.00;150360.38;4946665;28;20529;-83
2024/01/14 01:01:19;;;;;;;23.00;12.50;;;;;;;-3.98;100.00;150360.38;4972399;28;21284;-84
2024/01/14 01:03:46;;;;;;;23.80;13.70;;;;;;;-3.96;100.00;150365.47;4976470;28;20534;-84
2024/01/14 01:06:14;;;;;;;27.17;14.30;;;;;;;-3.93;100.00;150373.16;4966580;28;20509;-84
2024/01/14 01:08:40;;;;;;;25.37;12.67;;;;;;;-3.90;100.00;150380.84;4934126;29;20492;-84
2024/01/14 01:11:07;;;;;;;29.47;14.47;;;;;;;-3.86;100.00;150391.03;4950308;28;20455;-84
2024/01/14 01:13:33;;;;;;;19.47;12.40;;;;;;;-3.84;100.00;150396.16;4932580;29;20464;-83
2024/01/14 01:16:00;;;;;;;21.03;12.43;;;;;;;-3.82;100.00;150400.00;4939419;29;20804;-84
2024/01/14 01:18:27;;;;;;;25.37;13.47;;;;;;;-3.82;100.00;150401.28;4933999;29;20412;-84
2024/01/14 01:20:53;;;;;;;22.97;12.80;;;;;;;-3.81;100.00;150403.81;4950376;29;20438;-84
2024/01/14 01:23:21;;;;;;;21.10;12.20;;;;;;;-3.85;100.00;150393.63;4947753;28;20454;-83
2024/01/14 01:25:48;;;;;;;23.90;13.00;;;;;;;-3.88;100.00;150384.66;4983372;28;20450;-83
2024/01/14 01:28:14;;;;;;;28.20;11.73;;;;;;;-3.87;100.00;150388.50;4952324;28;20542;-84
2024/01/14 01:30:41;;;;;;;28.43;13.43;;;;;;;-3.86;100.00;150391.03;4964386;28;20776;-84
2024/01/14 01:33:08;;;;;;;29.53;13.23;;;;;;;-3.89;100.00;150383.34;4947791;28;20511;-84
2024/01/14 01:35:34;;;;;;;23.63;11.10;;;;;;;-3.88;100.00;150385.94;4945853;29;20555;-84
2024/01/14 01:38:01;;;;;;;27.30;12.47;;;;;;;-3.85;100.00;150393.63;4947052;29;20444;-84
2024/01/14 01:40:29;;;;;;;28.53;12.30;;;;;;;-3.85;100.00;150392.31;4943011;28;21071;-84
2024/01/14 01:42:56;;;;;;;20.40;13.13;;;;;;;-3.87;100.00;150388.50;4970617;28;20455;-84
2024/01/14 01:45:23;;;;;;;27.83;13.97;;;;;;;-3.88;100.00;150385.94;4947609;29;20463;-84
2024/01/14 01:47:50;;;;;;;21.40;13.37;;;;;;;-3.92;100.00;150374.44;4932626;29;20455;-84
2024/01/14 01:50:16;;;;;;;24.90;13.33;;;;;;;-3.98;100.00;150360.38;4948532;29;20461;-84
2024/01/14 01:52:43;;;;;;;26.73;14.07;;;;;;;-3.97;100.00;150362.91;4948411;29;20801;-84
2024/01/14 01:55:11;;;;;;;24.63;13.47;;;;;;;-3.96;100.00;150365.47;4949069;29;20494;-84
2024/01/14 01:57:39;;;;;;;21.13;11.17;;;;;;;-3.93;100.00;150373.16;4950717;28;20810;-84
2024/01/14 02:00:09;;;;;;;20.10;11.97;;;;;;;-3.89;100.00;150382.13;4959454;28;20455;-84
2024/01/14 02:02:41;;;;;;;25.57;13.30;;;;;;;-3.86;100.00;150391.03;4948899;29;21148;-84
2024/01/14 02:05:08;;;;;;;29.00;13.37;;;;;;;-3.83;100.00;150397.44;4941994;28;20452;-84
2024/01/14 02:07:34;;;;;;;21.07;12.20;;;;;;;-3.84;100.00;150396.16;4949398;29;20461;-84
2024/01/14 02:10:01;;;;;;;21.07;13.13;;;;;;;-3.88;100.00;150385.94;4933512;29;20834;-84
2024/01/14 02:12:27;;;;;;;22.53;13.37;;;;;;;-3.90;100.00;150380.84;4948913;29;20450;-84
2024/01/14 02:14:55;;;;;;;22.60;13.10;;;;;;;-3.91;100.00;150376.97;4927693;29;20563;-84
2024/01/14 02:17:22;;;;;;;22.90;13.03;;;;;;;-3.91;100.00;150378.25;4965339;28;20451;-84
2024/01/14 02:19:48;;;;;;;26.60;14.10;;;;;;;-3.91;100.00;150378.25;4931572;28;20459;-84
2024/01/14 02:22:20;;;;;;;22.30;12.30;;;;;;;-3.91;100.00;150378.25;4948351;29;20477;-84
2024/01/14 02:24:48;;;;;;;26.33;13.10;;;;;;;-3.94;100.00;150370.56;4952945;28;20478;-84
2024/01/14 02:27:15;;;;;;;20.20;11.40;;;;;;;-3.94;100.00;150370.56;4936490;29;20451;-84
2024/01/14 02:29:42;;;;;;;24.80;13.43;;;;;;;-3.90;100.00;150380.84;4951654;28;20501;-84
2024/01/14 02:32:08;;;;;;;24.97;13.13;;;;;;;-3.85;100.00;150393.63;4945285;28;20978;-84
2024/01/14 02:34:36;;;;;;;24.00;13.30;;;;;;;-3.84;100.00;150396.16;4949883;29;20542;-84
2024/01/14 02:37:02;;;;;;;19.90;11.37;;;;;;;-3.86;100.00;150391.03;4946735;28;21037;-84
2024/01/14 02:39:29;;;;;;;23.00;12.87;;;;;;;-3.83;100.00;150398.72;4950729;28;20432;-84
2024/01/14 02:41:57;;;;;;;20.53;10.93;;;;;;;-3.82;100.00;150401.28;4958048;28;20453;-84
2024/01/14 02:44:23;;;;;;;28.83;14.13;;;;;;;-3.84;100.00;150396.16;4932360;29;20452;-84
2024/01/14 02:46:50;;;;;;;22.23;12.80;;;;;;;-3.85;100.00;150393.63;4961893;28;20447;-84
2024/01/14 02:49:17;;;;;;;29.03;12.90;;;;;;;-3.85;100.00;150393.63;4951431;29;20435;-84
2024/01/14 02:51:45;;;;;;;19.53;12.10;;;;;;;-3.82;100.00;150401.28;4951488;29;20451;-84
2024/01/14 02:54:11;;;;;;;26.20;12.90;;;;;;;-3.77;100.00;150412.78;4953789;29;20446;-84
2024/01/14 02:56:38;;;;;;;22.70;12.77;;;;;;;-3.77;100.00;150414.06;4940002;28;20430;-84
2024/01/14 02:59:06;;;;;;;33.33;13.50;;;;;;;-3.80;100.00;150406.41;4972708;28;20447;-83
2024/01/14 03:01:32;;;;;;;28.70;13.70;;;;;;;-3.74;100.00;150420.47;4950225;29;20454;-84
2024/01/14 03:03:59;;;;;;;34.80;13.67;;;;;;;-3.76;100.00;150416.59;4946901;28;20822;-84
2024/01/14 03:06:25;;;;;;;27.07;14.40;;;;;;;-3.80;100.00;150406.41;4934354;29;20830;-84
2024/01/14 03:08:52;;;;;;;28.90;13.10;;;;;;;-3.83;100.00;150397.44;4934745;29;20795;-84
2024/01/14 03:11:19;;;;;;;23.70;12.80;;;;;;;-3.90;100.00;150379.53;4951772;29;20489;-83
2024/01/14 03:13:45;;;;;;;21.73;11.77;;;;;;;-3.92;100.00;150375.69;4932027;28;20437;-83
2024/01/14 03:16:13;;;;;;;25.97;13.50;;;;;;;-3.92;100.00;150375.69;4950147;28;20830;-84
2024/01/14 03:18:40;;;;;;;21.70;12.90;;;;;;;-3.96;100.00;150364.19;4934878;29;20826;-84
2024/01/14 03:21:08;;;;;;;24.67;14.27;;;;;;;-3.98;100.00;150360.38;4950153;28;20517;-84
2024/01/14 03:23:34;;;;;;;24.93;11.77;;;;;;;-4.00;100.00;150355.28;4977645;28;20526;-84
2024/01/14 03:26:01;;;;;;;25.70;12.67;;;;;;;-3.95;100.00;150366.75;4949981;29;20443;-84
2024/01/14 03:28:27;;;;;;;19.73;12.07;;;;;;;-3.93;100.00;150373.16;4950026;29;20421;-84
2024/01/14 03:30:54;;;;;;;28.50;12.97;;;;;;;-3.93;100.00;150371.88;4964510;28;20494;-85
2024/01/14 03:33:22;;;;;;;26.30;13.93;;;;;;;-3.91;100.00;150378.25;4958813;28;20904;-84
2024/01/14 03:35:48;;;;;;;23.77;13.23;;;;;;;-3.92;100.00;150375.69;4934020;29;20450;-84
2024/01/14 03:38:15;;;;;;;25.50;12.70;;;;;;;-3.93;100.00;150371.88;4952641;29;20834;-84
2024/01/14 03:40:41;;;;;;;23.07;11.50;;;;;;;-3.95;100.00;150368.06;4947118;28;20814;-84
2024/01/14 03:43:08;;;;;;;20.00;11.30;;;;;;;-3.94;100.00;150370.56;4936432;29;20978;-84
2024/01/14 03:45:35;;;;;;;25.03;13.17;;;;;;;-3.97;100.00;150362.91;4950089;28;20796;-83
2024/01/14 03:48:01;;;;;;;20.87;12.77;;;;;;;-3.99;100.00;150356.50;4944690;28;20462;-84
2024/01/14 03:50:29;;;;;;;23.40;12.80;;;;;;;-3.96;100.00;150365.47;4949837;29;20473;-84
2024/01/14 03:53:10;;;;;;;19.73;11.50;;;;;;;-3.94;100.00;150369.28;4951098;29;20936;-84
2024/01/14 03:55:36;;;;;;;25.30;11.27;;;;;;;-3.94;100.00;150369.28;4935159;29;20462;-84
2024/01/14 03:58:03;;;;;;;22.47;13.90;;;;;;;-3.93;100.00;150371.88;4935501;28;20467;-84
2024/01/14 04:00:29;;;;;;;23.73;12.57;;;;;;;-3.96;100.00;150365.47;4937230;28;20579;-84
2024/01/14 04:02:56;;;;;;;30.60;13.40;;;;;;;-3.95;100.00;150368.06;4952365;28;20447;-84
2024/01/14 04:05:22;;;;;;;23.97;13.30;;;;;;;-3.97;100.00;150361.66;4950189;28;20451;-84
2024/01/14 04:07:50;;;;;;;26.20;11.37;;;;;;;-3.99;100.00;150356.50;4952257;29;20474;-84
2024/01/14 04:10:17;;;;;;;22.03;13.07;;;;;;;-3.97;100.00;150362.91;4942579;29;20730;-83
2024/01/14 04:12:43;;;;;;;23.90;12.00;;;;;;;-3.93;100.00;150373.16;4935281;29;20439;-84
2024/01/14 04:15:10;;;;;;;21.27;11.13;;;;;;;-3.92;100.00;150375.69;4959382;28;21001;-84
2024/01/14 04:17:37;;;;;;;22.47;11.63;;;;;;;-3.93;100.00;150373.16;4968800;28;20447;-84
2024/01/14 04:20:06;;;;;;;22.43;13.47;;;;;;;-3.95;100.00;150366.75;4932960;29;20453;-84
2024/01/14 04:22:32;;;;;;;24.60;11.80;;;;;;;-4.00;100.00;150355.28;4931917;29;20579;-84
2024/01/14 04:25:00;;;;;;;18.27;11.10;;;;;;;-4.00;100.00;150355.28;4968794;28;20554;-84
2024/01/14 04:27:27;;;;;;;27.57;11.70;;;;;;;-4.00;100.00;150355.28;4932383;29;20451;-84
2024/01/14 04:29:54;;;;;;;20.53;11.23;;;;;;;-4.00;100.00;150354.00;4933730;29;20479;-84
2024/01/14 04:32:21;;;;;;;19.93;11.70;;;;;;;-4.00;100.00;150355.28;4949928;29;20552;-84
2024/01/14 04:34:47;;;;;;;24.77;12.20;;;;;;;-4.01;100.00;150352.69;4932204;29;20442;-84
2024/01/14 04:37:14;;;;;;;22.57;11.30;;;;;;;-4.02;100.00;150348.84;4936031;29;20514;-83
2024/01/14 04:39:40;;;;;;;26.90;11.20;;;;;;;-4.03;100.00;150346.31;4934984;29;20441;-84
2024/01/14 04:42:08;;;;;;;29.10;12.17;;;;;;;-4.06;100.00;150339.91;4933925;29;20430;-84
2024/01/14 04:44:35;;;;;;;25.23;13.00;;;;;;;-4.11;100.00;150327.13;4965558;28;20455;-84
2024/01/14 04:47:01;;;;;;;24.07;11.50;;;;;;;-4.12;100.00;150323.28;4949029;28;20454;-84
2024/01/14 04:49:44;;;;;;;26.70;13.30;;;;;;;-4.14;100.00;150319.47;4933544;29;20851;-83
2024/01/14 04:52:11;;;;;;;26.17;13.90;;;;;;;-4.19;100.00;150305.41;4932416;28;20464;-83
2024/01/14 04:54:37;;;;;;;18.87;12.60;;;;;;;-4.21;100.00;150300.28;4962401;28;20462;-84
2024/01/14 04:57:04;;;;;;;20.03;10.57;;;;;;;-4.19;100.00;150306.69;4948408;29;20485;-84
2024/01/14 04:59:33;;;;;;;27.10;12.23;;;;;;;-4.26;100.00;150288.75;4931206;28;20487;-84
2024/01/14 05:02:00;;;;;;;19.30;10.87;;;;;;;-4.28;100.00;150283.66;4962262;28;20542;-83
2024/01/14 05:04:49;;;;;;;22.10;12.63;;;;;;;-4.34;100.00;150269.59;4934908;29;20418;-83
2024/01/14 05:07:16;;;;;;;22.90;12.07;;;;;;;-4.31;100.00;150275.97;4975524;28;20530;-84
2024/01/14 05:09:42;;;;;;;18.83;10.43;;;;;;;-4.34;100.00;150269.59;4951262;29;20462;-83
2024/01/14 05:12:09;;;;;;;21.60;11.40;;;;;;;-4.38;100.00;150258.09;4948495;28;20438;-84
2024/01/14 05:14:37;;;;;;;20.67;10.73;;;;;;;-4.42;100.00;150247.91;4965103;28;20475;-84
2024/01/14 05:17:03;;;;;;;20.97;9.60;;;;;;;-4.44;100.00;150242.75;4950458;29;20440;-84
2024/01/14 05:19:30;;;;;;;22.60;11.80;;;;;;;-4.48;100.00;150232.56;4951122;29;20447;-84
2024/01/14 05:21:57;;;;;;;21.50;10.70;;;;;;;-4.52;100.00;150222.31;4963787;28;20425;-84
2024/01/14 05:24:24;;;;;;;18.13;9.87;;;;;;;-4.53;100.00;150219.78;4947901;28;20459;-84
2024/01/14 05:26:51;;;;;;;22.60;10.60;;;;;;;-4.56;100.00;150212.09;4944085;28;20968;-84
2024/01/14 05:29:18;;;;;;;19.97;11.30;;;;;;;-4.57;100.00;150209.53;4960442;28;20469;-83
2024/01/14 05:31:46;;;;;;;21.83;11.07;;;;;;;-4.57;100.00;150209.53;4948575;28;20570;-83
2024/01/14 05:34:12;;;;;;;18.07;10.07;;;;;;;-4.54;100.00;150217.19;4947121;28;20430;-83
2024/01/14 05:36:39;;;;;;;23.23;11.37;;;;;;;-4.56;100.00;150212.09;4931259;29;20536;-84
2024/01/14 05:39:06;;;;;;;16.77;10.20;;;;;;;-4.52;100.00;150222.31;4937929;28;20988;-84
2024/01/14 05:41:32;;;;;;;21.20;11.17;;;;;;;-4.55;100.00;150215.91;4928798;29;20853;-84
2024/01/14 05:43:59;;;;;;;20.40;11.67;;;;;;;-4.53;100.00;150219.78;4949613;28;20821;-84
2024/01/14 05:46:25;;;;;;;20.67;11.10;;;;;;;-4.51;100.00;150224.88;4947993;28;20953;-84
2024/01/14 05:48:53;;;;;;;19.93;11.63;;;;;;;-4.49;100.00;150231.25;4945856;28;20472;-84
2024/01/14 05:51:20;;;;;;;23.57;11.60;;;;;;;-4.46;100.00;150237.66;4958416;28;20854;-83
2024/01/14 05:53:46;;;;;;;24.20;12.17;;;;;;;-4.46;100.00;150237.66;4964547;28;20844;-84
2024/01/14 05:56:13;;;;;;;19.90;11.47;;;;;;;-4.46;100.00;150237.66;4961804;28;20548;-84
2024/01/14 05:58:41;;;;;;;23.00;10.30;;;;;;;-4.42;100.00;150247.91;4948627;29;20443;-84
2024/01/14 06:01:08;;;;;;;25.87;11.77;;;;;;;-4.45;100.00;150241.47;4926524;29;20554;-83
2024/01/14 06:03:35;;;;;;;22.47;11.80;;;;;;;-4.48;100.00;150232.56;4936157;28;20435;-84
2024/01/14 06:06:03;;;;;;;22.33;11.70;;;;;;;-4.46;100.00;150238.94;4950761;28;20547;-83
2024/01/14 06:08:30;;;;;;;18.77;10.67;;;;;;;-4.49;100.00;150231.25;4954340;28;20452;-84
2024/01/14 06:10:57;;;;;;;26.07;10.53;;;;;;;-4.48;100.00;150233.84;4952953;28;20492;-83
2024/01/14 06:13:23;;;;;;;19.30;10.17;;;;;;;-4.48;100.00;150232.56;4938548;28;20457;-83
2024/01/14 06:15:50;;;;;;;18.13;10.97;;;;;;;-4.52;100.00;150222.31;4955445;28;20833;-83
2024/01/14 06:18:16;;;;;;;22.60;12.00;;;;;;;-4.50;100.00;150227.44;4940214;29;20470;-83
2024/01/14 06:20:43;;;;;;;26.47;10.80;;;;;;;-4.49;100.00;150231.25;4960514;28;20449;-83
2024/01/14 06:23:11;;;;;;;18.10;10.37;;;;;;;-4.42;100.00;150247.91;4943178;28;20460;-84
2024/01/14 06:25:38;;;;;;;24.20;12.63;;;;;;;-4.45;100.00;150241.47;4953457;28;20438;-84
2024/01/14 06:28:06;;;;;;;24.87;13.00;;;;;;;-4.46;100.00;150237.66;4942599;29;20921;-83
2024/01/14 06:30:33;;;;;;;24.43;13.90;;;;;;;-4.52;100.00;150223.59;4953566;28;20502;-83
2024/01/14 06:32:59;;;;;;;22.53;11.20;;;;;;;-4.51;100.00;150224.88;4936992;29;20460;-84
2024/01/14 06:35:26;;;;;;;19.77;10.90;;;;;;;-4.50;100.00;150228.69;4950775;28;20471;-83
2024/01/14 06:37:53;;;;;;;19.93;10.97;;;;;;;-4.44;100.00;150242.75;4954308;28;20474;-83
2024/01/14 06:40:20;;;;;;;22.07;12.40;;;;;;;-4.46;100.00;150237.66;4935674;28;20476;-83
2024/01/14 06:42:47;;;;;;;19.13;12.40;;;;;;;-4.46;100.00;150237.66;4939999;28;20454;-84
2024/01/14 06:45:14;;;;;;;22.67;12.17;;;;;;;-4.43;100.00;150246.63;4951659;28;20455;-84
2024/01/14 06:47:41;;;;;;;25.47;12.13;;;;;;;-4.40;100.00;150253.00;4952476;28;20502;-84
2024/01/14 06:50:09;;;;;;;23.83;11.80;;;;;;;-4.42;100.00;150247.91;4936723;29;20472;-84
2024/01/14 06:52:35;;;;;;;24.83;13.20;;;;;;;-4.42;100.00;150249.13;4952885;28;20806;-84
2024/01/14 06:55:04;;;;;;;24.07;12.57;;;;;;;-4.40;100.00;150254.28;4935534;29;20482;-84
2024/01/14 06:57:32;;;;;;;18.27;11.30;;;;;;;-4.41;100.00;150250.44;4953127;28;21004;-84
2024/01/14 06:59:59;;;;;;;27.27;12.17;;;;;;;-4.39;100.00;150255.53;4937433;28;20464;-84
2024/01/14 07:02:25;;;;;;;25.77;11.13;;;;;;;-4.40;100.00;150253.00;4928390;29;20498;-83
2024/01/14 07:04:52;;;;;;;20.60;12.00;;;;;;;-4.40;100.00;150254.28;4920938;29;20447;-84
2024/01/14 07:07:19;;;;;;;19.30;10.70;;;;;;;-4.41;100.00;150251.72;4951451;28;21031;-83
2024/01/14 07:09:46;;;;;;;24.77;11.47;;;;;;;-4.39;100.00;150255.53;4951542;28;20458;-83
2024/01/14 07:12:12;;;;;;;28.43;12.80;;;;;;;-4.38;100.00;150258.09;4954296;28;20499;-83
2024/01/14 07:14:40;;;;;;;30.20;11.53;;;;;;;-4.39;100.00;150255.53;4923210;29;20512;-83
2024/01/14 07:17:07;;;;;;;31.17;13.40;;;;;;;-4.39;100.00;150256.81;4962189;28;20452;-83
2024/01/14 07:19:35;;;;;;;22.77;11.23;;;;;;;-4.40;100.00;150254.28;4939780;29;20787;-84
2024/01/14 07:22:02;;;;;;;28.87;12.67;;;;;;;-4.42;100.00;150249.13;4938861;29;20447;-83
2024/01/14 07:24:28;;;;;;;21.17;12.80;;;;;;;-4.41;100.00;150250.44;4930868;28;20520;-83
2024/01/14 07:26:55;;;;;;;19.00;11.40;;;;;;;-4.42;100.00;150247.91;4940802;28;20475;-84
2024/01/14 07:29:22;;;;;;;25.20;12.40;;;;;;;-4.44;100.00;150242.75;4948155;28;20499;-84
2024/01/14 07:31:50;;;;;;;20.77;10.77;;;;;;;-4.46;100.00;150237.66;4963426;28;20486;-84
2024/01/14 07:34:16;;;;;;;19.67;10.60;;;;;;;-4.45;100.00;150240.22;4942312;28;21261;-84
2024/01/14 07:36:43;;;;;;;27.47;12.57;;;;;;;-4.41;100.00;150250.44;4940472;28;20490;-84
2024/01/14 07:39:12;;;;;;;28.30;13.73;;;;;;;-4.42;100.00;150247.91;4925704;29;20450;-84
2024/01/14 07:41:39;;;;;;;25.07;12.20;;;;;;;-4.44;100.00;150242.75;4954093;28;20476;-84
2024/01/14 07:44:11;;;;;;;19.63;10.97;;;;;;;-4.47;100.00;150235.06;4921712;29;20462;-85
2024/01/14 07:46:37;;;;;;;22.57;11.97;;;;;;;-4.46;100.00;150237.66;4956788;28;20946;-85
2024/01/14 07:49:05;;;;;;;24.33;12.87;;;;;;;-4.45;100.00;150240.22;4947629;28;20455;-84
2024/01/14 07:51:32;;;;;;;21.40;12.60;;;;;;;-4.43;100.00;150245.31;4955832;28;20998;-84
2024/01/14 07:53:58;;;;;;;28.03;14.60;;;;;;;-4.45;100.00;150240.22;4926097;29;20453;-84
2024/01/14 07:56:28;;;;;;;21.20;11.83;;;;;;;-4.40;100.00;150253.00;4958398;28;20547;-83
2024/01/14 07:58:58;;;;;;;22.53;11.20;;;;;;;-4.39;100.00;150255.53;4946746;28;20440;-84
2024/01/14 08:01:24;;;;;;;20.73;12.40;;;;;;;-4.38;100.00;150258.09;4940888;28;20471;-84
2024/01/14 08:03:51;;;;;;;22.27;11.40;;;;;;;-4.34;100.00;150268.31;4947992;28;20448;-84
2024/01/14 08:06:24;;;;;;;22.83;11.37;;;;;;;-4.33;100.00;150272.16;4941930;28;20491;-84
2024/01/14 08:08:51;;;;;;;25.03;11.97;;;;;;;-4.32;100.00;150273.44;4954725;28;20448;-84
2024/01/14 08:11:20;;;;;;;28.00;12.97;;;;;;;-4.29;100.00;150281.13;4940245;28;20483;-85
2024/01/14 08:13:47;;;;;;;21.70;12.03;;;;;;;-4.26;100.00;150288.75;4943452;28;20451;-85
2024/01/14 08:16:14;;;;;;;27.57;12.90;;;;;;;-4.24;100.00;150292.63;4944329;28;20480;-86
2024/01/14 08:18:41;;;;;;;24.97;14.27;;;;;;;-4.23;100.00;150296.44;4964981;28;20474;-85
2024/01/14 08:24:20;;;;;;;27.53;15.33;;;;;;;-4.26;100.00;150288.75;4962484;28;20464;-86
2024/01/14 08:26:51;;;;;;;20.67;13.60;;;;;;;-4.25;100.00;150291.31;4986701;28;20905;-86
2024/01/14 08:29:25;;;;;;;25.80;13.80;;;;;;;-4.23;100.00;150296.44;4997653;28;20472;-86
2024/01/14 08:31:54;;;;;;;20.07;12.57;;;;;;;-4.22;100.00;150297.72;4983485;28;20564;-85
2024/01/14 08:34:31;;;;;;;26.43;13.07;;;;;;;-4.14;100.00;150319.47;4985539;28;20471;-85
2024/01/14 08:37:00;;;;;;;23.00;13.30;;;;;;;-4.11;100.00;150327.13;5001320;28;20442;-85
2024/01/14 08:39:27;;;;;;;29.47;13.00;;;;;;;-4.09;100.00;150330.94;5015397;23;20533;-83
2024/01/14 08:41:54;;;;;;;28.40;15.47;;;;;;;-4.10;100.00;150329.66;4980085;28;20799;-84
2024/01/14 08:44:21;;;;;;;21.57;13.80;;;;;;;-4.11;100.00;150325.84;4965364;28;20454;-84
2024/01/14 08:46:48;;;;;;;26.93;14.00;;;;;;;-4.09;100.00;150332.25;4987797;28;20453;-85
2024/01/14 08:49:15;;;;;;;22.97;12.73;;;;;;;-4.05;100.00;150341.19;5011526;23;21378;-84
2024/01/14 08:51:44;;;;;;;23.23;12.90;;;;;;;-4.02;100.00;150350.13;4958942;28;20570;-83
2024/01/14 08:54:13;;;;;;;23.47;13.10;;;;;;;-3.98;100.00;150359.09;4948428;28;20482;-84
2024/01/14 08:56:42;;;;;;;22.23;13.03;;;;;;;-3.96;100.00;150364.19;4942243;28;20471;-84
2024/01/14 08:59:09;;;;;;;21.00;12.30;;;;;;;-3.97;100.00;150361.66;4960194;28;21018;-83
2024/01/14 09:01:36;;;;;;;26.10;12.77;;;;;;;-3.98;100.00;150359.09;4976191;28;20980;-84
2024/01/14 09:04:03;;;;;;;26.00;12.70;;;;;;;-3.99;100.00;150356.50;4958441;28;20469;-85
2024/01/14 09:06:36;;;;;;;21.63;13.17;;;;;;;-4.00;100.00;150355.28;4969701;28;20466;-83
2024/01/14 09:09:03;;;;;;;22.70;12.87;;;;;;;-4.00;100.00;150355.28;4932075;28;20581;-83
2024/01/14 09:11:31;;;;;;;18.90;11.37;;;;;;;-3.98;100.00;150360.38;4956349;28;20470;-84
2024/01/14 09:13:57;;;;;;;26.13;14.50;;;;;;;-3.92;100.00;150374.44;4961166;28;20461;-84
2024/01/14 09:16:24;;;;;;;26.47;14.87;;;;;;;-3.91;100.00;150376.97;4945358;28;20538;-84
2024/01/14 09:18:51;;;;;;;24.13;12.50;;;;;;;-3.93;100.00;150373.16;4972131;28;20552;-84
2024/01/14 09:21:18;;;;;;;22.43;12.90;;;;;;;-3.95;100.00;150368.06;4972244;28;20458;-84
2024/01/14 09:23:45;;;;;;;33.43;14.83;;;;;;;-3.97;100.00;150362.91;4957595;28;20481;-84
2024/01/14 09:26:11;;;;;;;23.73;12.87;;;;;;;-3.95;100.00;150368.06;4940484;28;20773;-85
2024/01/14 09:28:39;;;;;;;27.53;14.07;;;;;;;-3.90;100.00;150380.84;4922703;28;20474;-84
2024/01/14 09:31:07;;;;;;;19.40;11.77;;;;;;;-3.87;100.00;150387.22;4957148;28;20474;-84
2024/01/14 09:33:33;;;;;;;20.83;11.93;;;;;;;-3.87;100.00;150387.22;4943549;28;20456;-85
2024/01/14 09:36:06;;;;;;;20.23;11.90;;;;;;;-3.87;100.00;150388.50;4940688;28;20466;-85
2024/01/14 09:38:33;;;;;;;22.60;12.10;;;;;;;-3.81;100.00;150403.81;4959237;28;20475;-85
2024/01/14 09:41:03;;;;;;;22.67;12.40;;;;;;;-3.77;100.00;150412.78;4926030;28;20458;-85
2024/01/14 09:43:34;;;;;;;25.00;13.57;;;;;;;-3.77;100.00;150414.06;4956531;28;20459;-85
2024/01/14 09:46:04;;;;;;;18.50;10.87;;;;;;;-3.71;100.00;150429.38;4935019;28;21040;-85
2024/01/14 09:48:32;;;;;;;30.13;13.53;;;;;;;-3.72;100.00;150425.56;4972746;28;20487;-84
2024/01/14 09:51:00;;;;;;;19.73;12.80;;;;;;;-3.70;100.00;150431.97;4971568;28;20469;-84
2024/01/14 09:53:28;;;;;;;26.40;15.20;;;;;;;-3.67;100.00;150438.34;4973423;28;20577;-85
2024/01/14 09:55:55;;;;;;;22.10;13.27;;;;;;;-3.65;100.00;150442.22;4942277;28;20446;-84
2024/01/14 09:58:22;;;;;;;22.20;11.50;;;;;;;-3.63;100.00;150447.31;4942159;28;20557;-85
2024/01/14 10:00:49;;;;;;;24.77;12.83;;;;;;;-3.60;100.00;150455.00;4964897;28;20463;-84
2024/01/14 10:03:17;;;;;;;23.00;12.30;;;;;;;-3.57;100.00;150462.69;4946325;28;20498;-85
2024/01/14 10:05:44;;;;;;;22.50;13.23;;;;;;;-3.56;100.00;150466.50;4976514;28;20456;-85
2024/01/14 10:08:11;;;;;;;22.77;13.13;;;;;;;-3.52;100.00;150475.47;4975051;28;20462;-84
2024/01/14 10:10:37;;;;;;;20.63;13.20;;;;;;;-3.49;100.00;150483.09;4959425;28;20469;-85
2024/01/14 10:13:06;;;;;;;29.17;13.50;;;;;;;-3.47;100.00;150488.25;4925481;28;20490;-84
2024/01/14 10:15:33;;;;;;;23.90;13.40;;;;;;;-3.45;100.00;150493.38;4924372;28;20483;-85
2024/01/14 10:18:00;;;;;;;23.23;12.10;;;;;;;-3.43;100.00;150498.47;4945051;28;20481;-84
2024/01/14 10:20:28;;;;;;;28.93;14.73;;;;;;;-3.43;100.00;150499.75;4944814;28;20459;-83
2024/01/14 10:22:53;;;;;;;17.20;11.27;;;;;;;-3.38;100.00;150512.53;4944669;28;20558;-84
2024/01/14 10:25:30;;;;;;;22.77;13.73;;;;;;;-3.36;100.00;150516.41;4974512;28;20454;-84
2024/01/14 10:28:03;;;;;;;21.13;13.30;;;;;;;-3.38;100.00;150511.25;4945374;28;20324;-83
2024/01/14 10:30:30;;;;;;;29.10;12.43;;;;;;;-3.36;100.00;150516.41;4954164;28;20459;-83
2024/01/14 10:32:58;;;;;;;24.67;13.03;;;;;;;-3.32;100.00;150527.91;4979684;28;20482;-83
2024/01/14 10:35:26;;;;;;;30.40;15.73;;;;;;;-3.26;100.00;150541.97;4956768;28;20475;-85
2024/01/14 10:37:55;;;;;;;19.90;12.30;;;;;;;-3.23;100.00;150549.66;4978767;28;20469;-83
2024/01/14 10:40:22;;;;;;;24.03;13.47;;;;;;;-3.22;100.00;150552.19;4953990;28;20497;-85
2024/01/14 10:42:49;;;;;;;20.10;12.43;;;;;;;-3.16;100.00;150567.56;4971380;28;20460;-84
2024/01/14 10:45:17;;;;;;;23.00;11.17;;;;;;;-3.08;100.00;150588.03;4975840;28;20471;-84
2024/01/14 10:47:49;;;;;;;26.70;12.97;;;;;;;-3.01;100.00;150605.94;4959940;28;20467;-85
2024/01/14 10:50:26;;;;;;;19.03;12.40;;;;;;;-2.94;100.00;150622.59;4958373;28;20846;-84
2024/01/14 10:52:56;;;;;;;27.17;12.23;;;;;;;-2.86;100.00;150644.31;4978127;28;20470;-84
2024/01/14 10:58:26;;;;;;;20.10;11.30;;;;;;;-2.80;100.00;150659.69;4974800;28;20462;-80
2024/01/14 11:00:53;;;;;;;21.67;12.93;;;;;;;-2.76;100.00;150669.94;4943993;28;20546;-80
2024/01/14 11:03:21;;;;;;;21.90;13.00;;;;;;;-2.72;100.00;150680.16;4962697;28;20502;-80
2024/01/14 11:05:51;;;;;;;18.47;11.80;;;;;;;-2.65;100.00;150698.06;4945066;28;20466;-79
2024/01/14 11:08:23;;;;;;;24.80;12.53;;;;;;;-2.59;100.00;150713.44;4976614;28;20463;-80